sensor_id;sensor_type;location;lat;lon;timestamp;P1;durP1;ratioP1;P2;durP2;ratioP2
20241;SDS011;10279;46.388;8.116;2023-04-25T00:00:39;2.77;;;1.33;;
20241;SDS011;10279;46.388;8.116;2023-04-25T00:03:06;1.00;;;0.90;;
20241;SDS011;10279;46.388;8.116;2023-04-25T00:05:35;1.27;;;1.10;;
20241;SDS011;10279;46.388;8.116;2023-04-25T00:08:03;1.50;;;1.23;;
20241;SDS011;10279;46.388;8.116;2023-04-25T00:10:31;2.03;;;1.10;;
20241;SDS011;10279;46.388;8.116;2023-04-25T00:12:58;3.60;;;1.47;;
20241;SDS011;10279;46.388;8.116;2023-04-25T00:15:28;1.50;;;1.00;;
20241;SDS011;10279;46.388;8.116;2023-04-25T00:17:57;4.40;;;1.37;;
20241;SDS011;10279;46.388;8.116;2023-04-25T00:20:24;1.30;;;1.20;;
20241;SDS011;10279;46.388;8.116;2023-04-25T00:22:52;1.70;;;1.10;;
20241;SDS011;10279;46.388;8.116;2023-04-25T00:25:19;2.53;;;1.20;;
20241;SDS011;10279;46.388;8.116;2023-04-25T00:27:47;2.80;;;1.20;;
20241;SDS011;10279;46.388;8.116;2023-04-25T00:30:14;1.40;;;1.13;;
20241;SDS011;10279;46.388;8.116;2023-04-25T00:32:42;2.97;;;1.23;;
20241;SDS011;10279;46.388;8.116;2023-04-25T00:35:09;1.97;;;1.33;;
20241;SDS011;10279;46.388;8.116;2023-04-25T00:37:37;1.30;;;1.20;;
20241;SDS011;10279;46.388;8.116;2023-04-25T00:40:05;2.33;;;1.00;;
20241;SDS011;10279;46.388;8.116;2023-04-25T00:42:32;1.33;;;1.00;;
20241;SDS011;10279;46.388;8.116;2023-04-25T00:45:00;1.30;;;1.20;;
20241;SDS011;10279;46.388;8.116;2023-04-25T00:47:28;2.63;;;1.27;;
20241;SDS011;10279;46.388;8.116;2023-04-25T00:49:56;1.77;;;1.40;;
20241;SDS011;10279;46.388;8.116;2023-04-25T00:52:23;2.60;;;1.00;;
20241;SDS011;10279;46.388;8.116;2023-04-25T00:54:51;2.37;;;1.27;;
20241;SDS011;10279;46.388;8.116;2023-04-25T00:57:18;1.73;;;1.17;;
20241;SDS011;10279;46.388;8.116;2023-04-25T00:59:45;1.53;;;1.00;;
20241;SDS011;10279;46.388;8.116;2023-04-25T01:02:13;3.57;;;1.57;;
20241;SDS011;10279;46.388;8.116;2023-04-25T01:04:40;2.40;;;1.03;;
20241;SDS011;10279;46.388;8.116;2023-04-25T01:07:08;3.73;;;1.60;;
20241;SDS011;10279;46.388;8.116;2023-04-25T01:09:37;2.73;;;1.30;;
20241;SDS011;10279;46.388;8.116;2023-04-25T01:12:04;1.10;;;1.00;;
20241;SDS011;10279;46.388;8.116;2023-04-25T01:14:31;1.80;;;1.27;;
20241;SDS011;10279;46.388;8.116;2023-04-25T01:16:59;1.97;;;1.10;;
20241;SDS011;10279;46.388;8.116;2023-04-25T01:19:27;1.37;;;1.00;;
20241;SDS011;10279;46.388;8.116;2023-04-25T01:21:54;1.63;;;1.10;;
20241;SDS011;10279;46.388;8.116;2023-04-25T01:24:21;2.00;;;1.40;;
20241;SDS011;10279;46.388;8.116;2023-04-25T01:26:49;1.97;;;0.97;;
20241;SDS011;10279;46.388;8.116;2023-04-25T01:29:17;2.30;;;1.20;;
20241;SDS011;10279;46.388;8.116;2023-04-25T01:31:45;1.53;;;1.30;;
20241;SDS011;10279;46.388;8.116;2023-04-25T01:34:12;2.83;;;0.97;;
20241;SDS011;10279;46.388;8.116;2023-04-25T01:36:40;2.87;;;1.23;;
20241;SDS011;10279;46.388;8.116;2023-04-25T01:39:07;1.80;;;1.10;;
20241;SDS011;10279;46.388;8.116;2023-04-25T01:41:35;2.77;;;1.40;;
20241;SDS011;10279;46.388;8.116;2023-04-25T01:44:02;3.03;;;1.50;;
20241;SDS011;10279;46.388;8.116;2023-04-25T01:46:30;1.67;;;1.10;;
20241;SDS011;10279;46.388;8.116;2023-04-25T01:48:57;3.17;;;1.17;;
20241;SDS011;10279;46.388;8.116;2023-04-25T01:51:25;2.30;;;1.30;;
20241;SDS011;10279;46.388;8.116;2023-04-25T01:53:52;3.10;;;1.20;;
20241;SDS011;10279;46.388;8.116;2023-04-25T01:56:21;1.93;;;1.07;;
20241;SDS011;10279;46.388;8.116;2023-04-25T01:58:48;2.67;;;0.90;;
20241;SDS011;10279;46.388;8.116;2023-04-25T02:01:15;1.50;;;1.17;;
20241;SDS011;10279;46.388;8.116;2023-04-25T02:03:43;2.97;;;1.23;;
20241;SDS011;10279;46.388;8.116;2023-04-25T02:06:11;2.90;;;1.27;;
20241;SDS011;10279;46.388;8.116;2023-04-25T02:08:38;2.43;;;1.17;;
20241;SDS011;10279;46.388;8.116;2023-04-25T02:11:05;1.63;;;1.03;;
20241;SDS011;10279;46.388;8.116;2023-04-25T02:13:33;2.57;;;0.90;;
20241;SDS011;10279;46.388;8.116;2023-04-25T02:16:00;1.83;;;1.00;;
20241;SDS011;10279;46.388;8.116;2023-04-25T02:18:28;1.30;;;1.10;;
20241;SDS011;10279;46.388;8.116;2023-04-25T02:20:55;2.50;;;1.30;;
20241;SDS011;10279;46.388;8.116;2023-04-25T02:23:23;2.40;;;1.17;;
20241;SDS011;10279;46.388;8.116;2023-04-25T02:25:51;1.80;;;1.00;;
20241;SDS011;10279;46.388;8.116;2023-04-25T02:28:19;4.13;;;1.20;;
20241;SDS011;10279;46.388;8.116;2023-04-25T02:30:46;2.80;;;1.10;;
20241;SDS011;10279;46.388;8.116;2023-04-25T02:33:13;1.47;;;1.03;;
20241;SDS011;10279;46.388;8.116;2023-04-25T02:35:43;2.20;;;1.13;;
20241;SDS011;10279;46.388;8.116;2023-04-25T02:38:10;1.10;;;1.00;;
20241;SDS011;10279;46.388;8.116;2023-04-25T02:40:38;3.37;;;1.30;;
20241;SDS011;10279;46.388;8.116;2023-04-25T02:43:05;1.23;;;0.87;;
20241;SDS011;10279;46.388;8.116;2023-04-25T02:45:33;2.37;;;1.47;;
20241;SDS011;10279;46.388;8.116;2023-04-25T02:48:02;2.30;;;1.30;;
20241;SDS011;10279;46.388;8.116;2023-04-25T02:50:29;2.30;;;0.90;;
20241;SDS011;10279;46.388;8.116;2023-04-25T02:52:57;1.57;;;1.13;;
20241;SDS011;10279;46.388;8.116;2023-04-25T02:55:24;1.67;;;1.00;;
20241;SDS011;10279;46.388;8.116;2023-04-25T02:57:53;1.40;;;1.30;;
20241;SDS011;10279;46.388;8.116;2023-04-25T03:00:24;2.63;;;1.53;;
20241;SDS011;10279;46.388;8.116;2023-04-25T03:02:51;3.03;;;0.93;;
20241;SDS011;10279;46.388;8.116;2023-04-25T03:05:19;2.83;;;1.20;;
20241;SDS011;10279;46.388;8.116;2023-04-25T03:07:46;1.50;;;1.30;;
20241;SDS011;10279;46.388;8.116;2023-04-25T03:10:14;1.83;;;1.20;;
20241;SDS011;10279;46.388;8.116;2023-04-25T03:12:41;2.83;;;1.47;;
20241;SDS011;10279;46.388;8.116;2023-04-25T03:15:10;1.40;;;1.00;;
20241;SDS011;10279;46.388;8.116;2023-04-25T03:17:37;1.87;;;1.07;;
20241;SDS011;10279;46.388;8.116;2023-04-25T03:20:05;5.13;;;1.20;;
20241;SDS011;10279;46.388;8.116;2023-04-25T03:22:34;2.00;;;1.20;;
20241;SDS011;10279;46.388;8.116;2023-04-25T03:25:02;4.10;;;1.57;;
20241;SDS011;10279;46.388;8.116;2023-04-25T03:27:30;2.10;;;1.53;;
20241;SDS011;10279;46.388;8.116;2023-04-25T03:29:57;2.63;;;1.23;;
20241;SDS011;10279;46.388;8.116;2023-04-25T03:32:25;2.90;;;1.40;;
20241;SDS011;10279;46.388;8.116;2023-04-25T03:34:52;2.10;;;1.20;;
20241;SDS011;10279;46.388;8.116;2023-04-25T03:37:19;2.17;;;1.80;;
20241;SDS011;10279;46.388;8.116;2023-04-25T03:39:47;3.33;;;1.40;;
20241;SDS011;10279;46.388;8.116;2023-04-25T03:42:14;1.03;;;1.00;;
20241;SDS011;10279;46.388;8.116;2023-04-25T03:44:42;3.83;;;1.40;;
20241;SDS011;10279;46.388;8.116;2023-04-25T03:47:09;1.70;;;1.20;;
20241;SDS011;10279;46.388;8.116;2023-04-25T03:49:37;1.70;;;1.20;;
20241;SDS011;10279;46.388;8.116;2023-04-25T03:52:04;2.83;;;1.13;;
20241;SDS011;10279;46.388;8.116;2023-04-25T03:54:31;3.33;;;1.53;;
20241;SDS011;10279;46.388;8.116;2023-04-25T03:56:59;3.33;;;1.30;;
20241;SDS011;10279;46.388;8.116;2023-04-25T03:59:26;3.03;;;1.37;;
20241;SDS011;10279;46.388;8.116;2023-04-25T04:01:54;1.30;;;1.20;;
20241;SDS011;10279;46.388;8.116;2023-04-25T04:04:21;2.53;;;1.40;;
20241;SDS011;10279;46.388;8.116;2023-04-25T04:06:49;1.83;;;1.20;;
20241;SDS011;10279;46.388;8.116;2023-04-25T04:09:18;3.40;;;1.43;;
20241;SDS011;10279;46.388;8.116;2023-04-25T04:11:46;2.43;;;1.17;;
20241;SDS011;10279;46.388;8.116;2023-04-25T04:14:14;3.67;;;1.37;;
20241;SDS011;10279;46.388;8.116;2023-04-25T04:16:41;2.77;;;1.33;;
20241;SDS011;10279;46.388;8.116;2023-04-25T04:19:09;3.77;;;1.40;;
20241;SDS011;10279;46.388;8.116;2023-04-25T04:21:37;1.87;;;1.20;;
20241;SDS011;10279;46.388;8.116;2023-04-25T04:24:04;3.03;;;1.50;;
20241;SDS011;10279;46.388;8.116;2023-04-25T04:26:32;2.33;;;1.47;;
20241;SDS011;10279;46.388;8.116;2023-04-25T04:29:00;2.03;;;1.40;;
20241;SDS011;10279;46.388;8.116;2023-04-25T04:31:29;1.47;;;1.33;;
20241;SDS011;10279;46.388;8.116;2023-04-25T04:33:56;2.60;;;1.50;;
20241;SDS011;10279;46.388;8.116;2023-04-25T04:36:24;3.93;;;2.07;;
20241;SDS011;10279;46.388;8.116;2023-04-25T04:38:53;1.33;;;1.20;;
20241;SDS011;10279;46.388;8.116;2023-04-25T04:41:20;3.00;;;1.70;;
20241;SDS011;10279;46.388;8.116;2023-04-25T04:43:47;1.37;;;1.27;;
20241;SDS011;10279;46.388;8.116;2023-04-25T04:46:15;3.97;;;1.40;;
20241;SDS011;10279;46.388;8.116;2023-04-25T04:48:44;1.47;;;1.33;;
20241;SDS011;10279;46.388;8.116;2023-04-25T04:51:12;3.07;;;1.43;;
20241;SDS011;10279;46.388;8.116;2023-04-25T04:53:39;4.33;;;1.13;;
20241;SDS011;10279;46.388;8.116;2023-04-25T04:56:06;2.37;;;1.47;;
20241;SDS011;10279;46.388;8.116;2023-04-25T04:58:37;3.80;;;2.10;;
20241;SDS011;10279;46.388;8.116;2023-04-25T05:01:04;4.00;;;1.80;;
20241;SDS011;10279;46.388;8.116;2023-04-25T05:03:32;2.33;;;1.57;;
20241;SDS011;10279;46.388;8.116;2023-04-25T05:06:00;2.83;;;1.50;;
20241;SDS011;10279;46.388;8.116;2023-04-25T05:08:27;2.77;;;1.40;;
20241;SDS011;10279;46.388;8.116;2023-04-25T05:10:55;2.67;;;1.70;;
20241;SDS011;10279;46.388;8.116;2023-04-25T05:13:22;1.80;;;1.17;;
20241;SDS011;10279;46.388;8.116;2023-04-25T05:15:49;3.37;;;1.80;;
20241;SDS011;10279;46.388;8.116;2023-04-25T05:18:17;2.87;;;1.73;;
20241;SDS011;10279;46.388;8.116;2023-04-25T05:20:47;2.50;;;1.30;;
20241;SDS011;10279;46.388;8.116;2023-04-25T05:23:14;1.67;;;1.57;;
20241;SDS011;10279;46.388;8.116;2023-04-25T05:25:42;2.67;;;1.80;;
20241;SDS011;10279;46.388;8.116;2023-04-25T05:28:12;3.10;;;1.77;;
20241;SDS011;10279;46.388;8.116;2023-04-25T05:30:40;5.07;;;1.57;;
20241;SDS011;10279;46.388;8.116;2023-04-25T05:33:07;2.60;;;1.67;;
20241;SDS011;10279;46.388;8.116;2023-04-25T05:35:35;2.37;;;1.90;;
20241;SDS011;10279;46.388;8.116;2023-04-25T05:38:02;3.60;;;2.30;;
20241;SDS011;10279;46.388;8.116;2023-04-25T05:40:30;4.67;;;2.47;;
20241;SDS011;10279;46.388;8.116;2023-04-25T05:42:57;5.87;;;2.53;;
20241;SDS011;10279;46.388;8.116;2023-04-25T05:45:25;2.90;;;2.30;;
20241;SDS011;10279;46.388;8.116;2023-04-25T05:47:52;4.47;;;2.33;;
20241;SDS011;10279;46.388;8.116;2023-04-25T05:50:20;5.33;;;2.80;;
20241;SDS011;10279;46.388;8.116;2023-04-25T05:52:47;5.57;;;2.37;;
20241;SDS011;10279;46.388;8.116;2023-04-25T05:55:15;3.27;;;2.17;;
20241;SDS011;10279;46.388;8.116;2023-04-25T05:57:42;3.30;;;2.27;;
20241;SDS011;10279;46.388;8.116;2023-04-25T06:00:12;3.23;;;2.30;;
20241;SDS011;10279;46.388;8.116;2023-04-25T06:02:39;3.83;;;2.60;;
20241;SDS011;10279;46.388;8.116;2023-04-25T06:05:08;3.73;;;2.50;;
20241;SDS011;10279;46.388;8.116;2023-04-25T06:07:36;5.30;;;2.40;;
20241;SDS011;10279;46.388;8.116;2023-04-25T06:10:04;4.80;;;2.27;;
20241;SDS011;10279;46.388;8.116;2023-04-25T06:12:33;3.00;;;2.70;;
20241;SDS011;10279;46.388;8.116;2023-04-25T06:15:00;4.10;;;2.50;;
20241;SDS011;10279;46.388;8.116;2023-04-25T06:17:33;2.33;;;2.13;;
20241;SDS011;10279;46.388;8.116;2023-04-25T06:20:02;4.13;;;2.20;;
20241;SDS011;10279;46.388;8.116;2023-04-25T06:22:32;2.73;;;2.00;;
20241;SDS011;10279;46.388;8.116;2023-04-25T06:25:00;2.33;;;2.13;;
20241;SDS011;10279;46.388;8.116;2023-04-25T06:27:29;6.27;;;2.90;;
20241;SDS011;10279;46.388;8.116;2023-04-25T06:29:56;2.60;;;2.30;;
20241;SDS011;10279;46.388;8.116;2023-04-25T06:32:24;4.43;;;2.43;;
20241;SDS011;10279;46.388;8.116;2023-04-25T06:34:54;2.50;;;2.30;;
20241;SDS011;10279;46.388;8.116;2023-04-25T06:37:25;3.73;;;2.10;;
20241;SDS011;10279;46.388;8.116;2023-04-25T06:39:52;6.87;;;2.60;;
20241;SDS011;10279;46.388;8.116;2023-04-25T06:42:19;2.60;;;2.37;;
20241;SDS011;10279;46.388;8.116;2023-04-25T06:44:47;6.10;;;2.57;;
20241;SDS011;10279;46.388;8.116;2023-04-25T06:47:14;3.53;;;2.10;;
20241;SDS011;10279;46.388;8.116;2023-04-25T06:49:42;4.63;;;2.47;;
20241;SDS011;10279;46.388;8.116;2023-04-25T06:52:09;5.07;;;2.27;;
20241;SDS011;10279;46.388;8.116;2023-04-25T06:54:37;2.60;;;2.40;;
20241;SDS011;10279;46.388;8.116;2023-04-25T06:57:04;4.43;;;2.30;;
20241;SDS011;10279;46.388;8.116;2023-04-25T06:59:32;4.03;;;2.33;;
20241;SDS011;10279;46.388;8.116;2023-04-25T07:01:59;5.07;;;2.30;;
20241;SDS011;10279;46.388;8.116;2023-04-25T07:04:27;2.50;;;2.20;;
20241;SDS011;10279;46.388;8.116;2023-04-25T07:06:54;2.80;;;2.03;;
20241;SDS011;10279;46.388;8.116;2023-04-25T07:09:23;3.10;;;1.90;;
20241;SDS011;10279;46.388;8.116;2023-04-25T07:11:51;4.57;;;2.27;;
20241;SDS011;10279;46.388;8.116;2023-04-25T07:14:18;3.03;;;2.40;;
20241;SDS011;10279;46.388;8.116;2023-04-25T07:16:45;2.57;;;2.37;;
20241;SDS011;10279;46.388;8.116;2023-04-25T07:19:13;2.43;;;2.13;;
20241;SDS011;10279;46.388;8.116;2023-04-25T07:21:40;1.70;;;1.60;;
20241;SDS011;10279;46.388;8.116;2023-04-25T07:24:08;2.10;;;1.43;;
20241;SDS011;10279;46.388;8.116;2023-04-25T07:26:35;0.93;;;0.93;;
20241;SDS011;10279;46.388;8.116;2023-04-25T07:29:03;2.07;;;1.53;;
20241;SDS011;10279;46.388;8.116;2023-04-25T07:31:30;1.13;;;1.03;;
20241;SDS011;10279;46.388;8.116;2023-04-25T07:33:58;0.70;;;0.70;;
20241;SDS011;10279;46.388;8.116;2023-04-25T07:36:27;1.10;;;0.87;;
20241;SDS011;10279;46.388;8.116;2023-04-25T07:38:54;0.60;;;0.60;;
20241;SDS011;10279;46.388;8.116;2023-04-25T07:41:25;1.17;;;0.80;;
20241;SDS011;10279;46.388;8.116;2023-04-25T07:43:52;0.87;;;0.87;;
20241;SDS011;10279;46.388;8.116;2023-04-25T07:46:19;0.73;;;0.73;;
20241;SDS011;10279;46.388;8.116;2023-04-25T07:48:47;0.57;;;0.57;;
20241;SDS011;10279;46.388;8.116;2023-04-25T07:51:15;0.77;;;0.60;;
20241;SDS011;10279;46.388;8.116;2023-04-25T07:53:42;0.60;;;0.60;;
20241;SDS011;10279;46.388;8.116;2023-04-25T07:56:10;0.40;;;0.40;;
20241;SDS011;10279;46.388;8.116;2023-04-25T07:58:37;1.10;;;0.70;;
20241;SDS011;10279;46.388;8.116;2023-04-25T08:01:04;0.70;;;0.60;;
20241;SDS011;10279;46.388;8.116;2023-04-25T08:03:32;0.97;;;0.60;;
20241;SDS011;10279;46.388;8.116;2023-04-25T08:05:59;1.33;;;0.50;;
20241;SDS011;10279;46.388;8.116;2023-04-25T08:08:32;0.70;;;0.60;;
20241;SDS011;10279;46.388;8.116;2023-04-25T08:10:59;1.73;;;0.90;;
20241;SDS011;10279;46.388;8.116;2023-04-25T08:13:27;1.10;;;0.67;;
20241;SDS011;10279;46.388;8.116;2023-04-25T08:15:57;1.33;;;0.70;;
20241;SDS011;10279;46.388;8.116;2023-04-25T08:18:25;0.70;;;0.70;;
20241;SDS011;10279;46.388;8.116;2023-04-25T08:20:52;0.63;;;0.63;;
20241;SDS011;10279;46.388;8.116;2023-04-25T08:23:20;0.80;;;0.80;;
20241;SDS011;10279;46.388;8.116;2023-04-25T08:25:47;1.23;;;0.83;;
20241;SDS011;10279;46.388;8.116;2023-04-25T08:28:15;1.23;;;0.80;;
20241;SDS011;10279;46.388;8.116;2023-04-25T08:30:42;0.70;;;0.70;;
20241;SDS011;10279;46.388;8.116;2023-04-25T08:33:09;0.90;;;0.90;;
20241;SDS011;10279;46.388;8.116;2023-04-25T08:35:37;2.87;;;0.87;;
20241;SDS011;10279;46.388;8.116;2023-04-25T08:38:05;1.20;;;0.83;;
20241;SDS011;10279;46.388;8.116;2023-04-25T08:40:35;0.80;;;0.80;;
20241;SDS011;10279;46.388;8.116;2023-04-25T08:43:04;1.43;;;0.97;;
20241;SDS011;10279;46.388;8.116;2023-04-25T08:45:41;0.80;;;0.80;;
20241;SDS011;10279;46.388;8.116;2023-04-25T08:48:10;1.30;;;0.90;;
20241;SDS011;10279;46.388;8.116;2023-04-25T08:50:45;0.90;;;0.83;;
20241;SDS011;10279;46.388;8.116;2023-04-25T08:53:12;0.80;;;0.80;;
20241;SDS011;10279;46.388;8.116;2023-04-25T08:55:45;1.60;;;0.80;;
20241;SDS011;10279;46.388;8.116;2023-04-25T08:58:13;1.17;;;1.03;;
20241;SDS011;10279;46.388;8.116;2023-04-25T09:00:41;1.77;;;1.00;;
20241;SDS011;10279;46.388;8.116;2023-04-25T09:03:08;1.07;;;0.93;;
20241;SDS011;10279;46.388;8.116;2023-04-25T09:05:36;0.77;;;0.77;;
20241;SDS011;10279;46.388;8.116;2023-04-25T09:08:04;1.07;;;0.70;;
20241;SDS011;10279;46.388;8.116;2023-04-25T09:10:32;2.33;;;0.90;;
20241;SDS011;10279;46.388;8.116;2023-04-25T09:13:04;1.53;;;0.90;;
20241;SDS011;10279;46.388;8.116;2023-04-25T09:15:32;2.20;;;1.00;;
20241;SDS011;10279;46.388;8.116;2023-04-25T09:18:00;1.90;;;0.90;;
20241;SDS011;10279;46.388;8.116;2023-04-25T09:20:27;0.70;;;0.70;;
20241;SDS011;10279;46.388;8.116;2023-04-25T09:23:03;1.27;;;1.17;;
20241;SDS011;10279;46.388;8.116;2023-04-25T09:25:35;1.63;;;0.80;;
20241;SDS011;10279;46.388;8.116;2023-04-25T09:28:06;0.97;;;0.97;;
20241;SDS011;10279;46.388;8.116;2023-04-25T09:30:34;1.40;;;1.17;;
20241;SDS011;10279;46.388;8.116;2023-04-25T09:33:05;0.70;;;0.70;;
20241;SDS011;10279;46.388;8.116;2023-04-25T09:38:08;0.70;;;0.70;;
20241;SDS011;10279;46.388;8.116;2023-04-25T09:40:40;0.60;;;0.60;;
20241;SDS011;10279;46.388;8.116;2023-04-25T09:43:20;1.30;;;0.77;;
20241;SDS011;10279;46.388;8.116;2023-04-25T09:45:48;1.13;;;0.83;;
20241;SDS011;10279;46.388;8.116;2023-04-25T09:48:18;2.00;;;0.70;;
20241;SDS011;10279;46.388;8.116;2023-04-25T09:51:05;2.83;;;0.80;;
20241;SDS011;10279;46.388;8.116;2023-04-25T09:53:43;0.50;;;0.50;;
20241;SDS011;10279;46.388;8.116;2023-04-25T09:56:18;0.50;;;0.50;;
20241;SDS011;10279;46.388;8.116;2023-04-25T09:58:47;0.90;;;0.80;;
20241;SDS011;10279;46.388;8.116;2023-04-25T10:01:14;2.80;;;0.70;;
20241;SDS011;10279;46.388;8.116;2023-04-25T10:03:43;0.80;;;0.60;;
20241;SDS011;10279;46.388;8.116;2023-04-25T10:06:14;0.40;;;0.40;;
20241;SDS011;10279;46.388;8.116;2023-04-25T10:08:45;1.53;;;0.60;;
20241;SDS011;10279;46.388;8.116;2023-04-25T10:11:15;0.70;;;0.57;;
20241;SDS011;10279;46.388;8.116;2023-04-25T10:13:42;0.30;;;0.30;;
20241;SDS011;10279;46.388;8.116;2023-04-25T10:16:10;0.50;;;0.50;;
20241;SDS011;10279;46.388;8.116;2023-04-25T10:18:38;0.40;;;0.40;;
20241;SDS011;10279;46.388;8.116;2023-04-25T10:21:05;1.57;;;0.50;;
20241;SDS011;10279;46.388;8.116;2023-04-25T10:23:33;0.50;;;0.50;;
20241;SDS011;10279;46.388;8.116;2023-04-25T10:26:02;1.03;;;0.63;;
20241;SDS011;10279;46.388;8.116;2023-04-25T10:28:29;0.33;;;0.30;;
20241;SDS011;10279;46.388;8.116;2023-04-25T10:31:16;0.70;;;0.53;;
20241;SDS011;10279;46.388;8.116;2023-04-25T10:33:44;0.40;;;0.33;;
20241;SDS011;10279;46.388;8.116;2023-04-25T10:36:12;0.80;;;0.40;;
20241;SDS011;10279;46.388;8.116;2023-04-25T10:38:44;0.70;;;0.70;;
20241;SDS011;10279;46.388;8.116;2023-04-25T10:41:13;0.50;;;0.50;;
20241;SDS011;10279;46.388;8.116;2023-04-25T10:43:42;0.40;;;0.40;;
20241;SDS011;10279;46.388;8.116;2023-04-25T10:48:44;0.50;;;0.50;;
20241;SDS011;10279;46.388;8.116;2023-04-25T10:51:17;1.53;;;0.77;;
20241;SDS011;10279;46.388;8.116;2023-04-25T10:53:45;2.17;;;1.23;;
20241;SDS011;10279;46.388;8.116;2023-04-25T10:56:16;0.97;;;0.73;;
20241;SDS011;10279;46.388;8.116;2023-04-25T10:58:44;1.90;;;1.23;;
20241;SDS011;10279;46.388;8.116;2023-04-25T11:01:15;3.17;;;1.90;;
20241;SDS011;10279;46.388;8.116;2023-04-25T11:03:46;0.53;;;0.53;;
20241;SDS011;10279;46.388;8.116;2023-04-25T11:06:22;0.40;;;0.40;;
20241;SDS011;10279;46.388;8.116;2023-04-25T11:08:50;1.63;;;0.80;;
20241;SDS011;10279;46.388;8.116;2023-04-25T11:11:19;1.57;;;0.90;;
20241;SDS011;10279;46.388;8.116;2023-04-25T11:13:49;0.67;;;0.60;;
20241;SDS011;10279;46.388;8.116;2023-04-25T11:16:17;0.90;;;0.80;;
20241;SDS011;10279;46.388;8.116;2023-04-25T11:18:53;0.70;;;0.70;;
20241;SDS011;10279;46.388;8.116;2023-04-25T11:21:21;2.33;;;1.47;;
20241;SDS011;10279;46.388;8.116;2023-04-25T11:23:48;2.10;;;1.70;;
20241;SDS011;10279;46.388;8.116;2023-04-25T11:26:16;1.07;;;0.80;;
20241;SDS011;10279;46.388;8.116;2023-04-25T11:28:47;0.60;;;0.57;;
20241;SDS011;10279;46.388;8.116;2023-04-25T11:31:16;0.70;;;0.70;;
20241;SDS011;10279;46.388;8.116;2023-04-25T11:33:47;1.10;;;0.70;;
20241;SDS011;10279;46.388;8.116;2023-04-25T11:36:15;0.50;;;0.43;;
20241;SDS011;10279;46.388;8.116;2023-04-25T11:38:42;0.63;;;0.60;;
20241;SDS011;10279;46.388;8.116;2023-04-25T11:41:10;0.50;;;0.50;;
20241;SDS011;10279;46.388;8.116;2023-04-25T11:43:38;0.43;;;0.43;;
20241;SDS011;10279;46.388;8.116;2023-04-25T11:46:08;1.00;;;0.67;;
20241;SDS011;10279;46.388;8.116;2023-04-25T11:48:37;1.17;;;0.80;;
20241;SDS011;10279;46.388;8.116;2023-04-25T11:51:05;1.57;;;0.70;;
20241;SDS011;10279;46.388;8.116;2023-04-25T11:53:32;0.63;;;0.50;;
20241;SDS011;10279;46.388;8.116;2023-04-25T11:56:00;1.07;;;0.60;;
20241;SDS011;10279;46.388;8.116;2023-04-25T11:58:28;0.93;;;0.57;;
20241;SDS011;10279;46.388;8.116;2023-04-25T12:00:56;1.20;;;0.60;;
20241;SDS011;10279;46.388;8.116;2023-04-25T12:03:25;1.93;;;0.90;;
20241;SDS011;10279;46.388;8.116;2023-04-25T12:06:02;1.63;;;0.70;;
20241;SDS011;10279;46.388;8.116;2023-04-25T12:08:30;1.73;;;0.63;;
20241;SDS011;10279;46.388;8.116;2023-04-25T12:10:58;2.93;;;0.90;;
20241;SDS011;10279;46.388;8.116;2023-04-25T12:13:26;0.87;;;0.57;;
20241;SDS011;10279;46.388;8.116;2023-04-25T12:15:57;0.93;;;0.63;;
20241;SDS011;10279;46.388;8.116;2023-04-25T12:18:24;1.40;;;1.23;;
20241;SDS011;10279;46.388;8.116;2023-04-25T12:20:54;1.00;;;0.60;;
20241;SDS011;10279;46.388;8.116;2023-04-25T12:23:28;1.70;;;0.70;;
20241;SDS011;10279;46.388;8.116;2023-04-25T12:25:56;0.97;;;0.80;;
20241;SDS011;10279;46.388;8.116;2023-04-25T12:28:24;0.77;;;0.50;;
20241;SDS011;10279;46.388;8.116;2023-04-25T12:31:03;0.67;;;0.50;;
20241;SDS011;10279;46.388;8.116;2023-04-25T12:33:37;0.50;;;0.50;;
20241;SDS011;10279;46.388;8.116;2023-04-25T12:36:06;0.70;;;0.50;;
20241;SDS011;10279;46.388;8.116;2023-04-25T12:38:36;1.03;;;0.60;;
20241;SDS011;10279;46.388;8.116;2023-04-25T12:41:04;0.80;;;0.60;;
20241;SDS011;10279;46.388;8.116;2023-04-25T12:43:31;0.70;;;0.50;;
20241;SDS011;10279;46.388;8.116;2023-04-25T12:45:59;0.60;;;0.60;;
20241;SDS011;10279;46.388;8.116;2023-04-25T12:48:27;1.00;;;0.47;;
20241;SDS011;10279;46.388;8.116;2023-04-25T12:50:54;0.33;;;0.30;;
20241;SDS011;10279;46.388;8.116;2023-04-25T12:53:22;1.63;;;0.60;;
20241;SDS011;10279;46.388;8.116;2023-04-25T12:55:50;0.50;;;0.50;;
20241;SDS011;10279;46.388;8.116;2023-04-25T12:58:18;0.73;;;0.53;;
20241;SDS011;10279;46.388;8.116;2023-04-25T13:00:46;2.67;;;0.60;;
20241;SDS011;10279;46.388;8.116;2023-04-25T13:03:14;1.63;;;0.50;;
20241;SDS011;10279;46.388;8.116;2023-04-25T13:05:42;0.60;;;0.53;;
20241;SDS011;10279;46.388;8.116;2023-04-25T13:08:09;1.03;;;0.53;;
20241;SDS011;10279;46.388;8.116;2023-04-25T13:10:37;1.17;;;0.67;;
20241;SDS011;10279;46.388;8.116;2023-04-25T13:13:05;1.03;;;0.90;;
20241;SDS011;10279;46.388;8.116;2023-04-25T13:15:33;0.53;;;0.53;;
20241;SDS011;10279;46.388;8.116;2023-04-25T13:18:00;1.90;;;0.83;;
20241;SDS011;10279;46.388;8.116;2023-04-25T13:20:28;0.60;;;0.60;;
20241;SDS011;10279;46.388;8.116;2023-04-25T13:22:56;2.50;;;0.60;;
20241;SDS011;10279;46.388;8.116;2023-04-25T13:25:27;2.40;;;0.77;;
20241;SDS011;10279;46.388;8.116;2023-04-25T13:27:54;1.50;;;0.70;;
20241;SDS011;10279;46.388;8.116;2023-04-25T13:30:21;0.80;;;0.60;;
20241;SDS011;10279;46.388;8.116;2023-04-25T13:32:49;2.83;;;1.40;;
20241;SDS011;10279;46.388;8.116;2023-04-25T13:35:17;0.90;;;0.50;;
20241;SDS011;10279;46.388;8.116;2023-04-25T13:37:44;1.10;;;0.70;;
20241;SDS011;10279;46.388;8.116;2023-04-25T13:40:12;0.90;;;0.53;;
20241;SDS011;10279;46.388;8.116;2023-04-25T13:42:40;1.43;;;0.90;;
20241;SDS011;10279;46.388;8.116;2023-04-25T13:45:07;1.00;;;0.70;;
20241;SDS011;10279;46.388;8.116;2023-04-25T13:47:35;0.80;;;0.80;;
20241;SDS011;10279;46.388;8.116;2023-04-25T13:50:03;3.77;;;0.70;;
20241;SDS011;10279;46.388;8.116;2023-04-25T13:52:32;1.27;;;0.50;;
20241;SDS011;10279;46.388;8.116;2023-04-25T13:54:59;0.50;;;0.50;;
20241;SDS011;10279;46.388;8.116;2023-04-25T13:57:35;0.70;;;0.70;;
20241;SDS011;10279;46.388;8.116;2023-04-25T14:00:07;0.80;;;0.70;;
20241;SDS011;10279;46.388;8.116;2023-04-25T14:02:37;1.23;;;0.80;;
20241;SDS011;10279;46.388;8.116;2023-04-25T14:05:05;0.50;;;0.50;;
20241;SDS011;10279;46.388;8.116;2023-04-25T14:07:34;0.50;;;0.40;;
20241;SDS011;10279;46.388;8.116;2023-04-25T14:10:02;1.00;;;0.70;;
20241;SDS011;10279;46.388;8.116;2023-04-25T14:12:31;0.97;;;0.60;;
20241;SDS011;10279;46.388;8.116;2023-04-25T14:14:59;1.23;;;0.87;;
20241;SDS011;10279;46.388;8.116;2023-04-25T14:17:26;2.23;;;0.80;;
20241;SDS011;10279;46.388;8.116;2023-04-25T14:19:54;0.60;;;0.60;;
20241;SDS011;10279;46.388;8.116;2023-04-25T14:22:21;1.47;;;0.67;;
20241;SDS011;10279;46.388;8.116;2023-04-25T14:24:49;0.50;;;0.50;;
20241;SDS011;10279;46.388;8.116;2023-04-25T14:27:16;1.90;;;0.70;;
20241;SDS011;10279;46.388;8.116;2023-04-25T14:29:44;1.23;;;0.60;;
20241;SDS011;10279;46.388;8.116;2023-04-25T14:32:11;0.53;;;0.40;;
20241;SDS011;10279;46.388;8.116;2023-04-25T14:34:38;1.20;;;0.40;;
20241;SDS011;10279;46.388;8.116;2023-04-25T14:37:06;1.77;;;0.87;;
20241;SDS011;10279;46.388;8.116;2023-04-25T14:39:34;1.77;;;0.90;;
20241;SDS011;10279;46.388;8.116;2023-04-25T14:42:03;0.77;;;0.73;;
20241;SDS011;10279;46.388;8.116;2023-04-25T14:44:30;0.80;;;0.60;;
20241;SDS011;10279;46.388;8.116;2023-04-25T14:46:58;0.60;;;0.53;;
20241;SDS011;10279;46.388;8.116;2023-04-25T14:49:26;1.83;;;0.50;;
20241;SDS011;10279;46.388;8.116;2023-04-25T14:51:54;1.97;;;0.70;;
20241;SDS011;10279;46.388;8.116;2023-04-25T14:54:22;0.90;;;0.53;;
20241;SDS011;10279;46.388;8.116;2023-04-25T14:56:49;1.40;;;0.70;;
20241;SDS011;10279;46.388;8.116;2023-04-25T14:59:17;3.00;;;0.67;;